createdAt,value
2023-04-09T00:01:09.060Z,2.38
2023-04-09T00:02:11.491Z,2.88
2023-04-09T00:03:14.016Z,2.50
2023-04-09T00:04:16.544Z,2.60
2023-04-09T00:05:19.071Z,2.63
2023-04-09T00:06:21.534Z,2.58
2023-04-09T00:07:23.956Z,2.80
2023-04-09T00:08:26.760Z,2.47
2023-04-09T00:09:29.215Z,2.63
2023-04-09T00:10:31.636Z,2.35
2023-04-09T00:11:34.060Z,2.45
2023-04-09T00:12:37.836Z,2.75
2023-04-09T00:13:40.437Z,2.40
2023-04-09T00:14:42.870Z,2.80
2023-04-09T00:15:46.522Z,2.67
2023-04-09T00:16:48.996Z,2.47
2023-04-09T00:17:52.388Z,2.53
2023-04-09T00:18:55.086Z,2.25
2023-04-09T00:19:57.710Z,2.65
2023-04-09T00:21:00.847Z,2.88
2023-04-09T00:22:03.626Z,2.50
2023-04-09T00:23:06.352Z,2.38
2023-04-09T00:24:09.189Z,2.83
2023-04-09T00:25:11.668Z,2.50
2023-04-09T00:26:14.183Z,2.60
2023-04-09T00:27:17.648Z,2.30
2023-04-09T00:28:20.156Z,2.25
2023-04-09T00:29:22.832Z,2.38
2023-04-09T00:30:31.425Z,2.50
2023-04-09T00:31:34.586Z,2.33
2023-04-09T00:32:37.646Z,2.33
2023-04-09T00:33:44.934Z,2.72
2023-04-09T00:34:47.727Z,2.17
2023-04-09T00:35:50.362Z,2.40
2023-04-09T00:36:52.981Z,2.40
2023-04-09T00:37:55.427Z,2.13
2023-04-09T00:38:58.873Z,2.50
2023-04-09T00:40:01.538Z,2.85
2023-04-09T00:41:04.244Z,2.17
2023-04-09T00:42:06.751Z,2.20
2023-04-09T00:43:09.520Z,2.53
2023-04-09T00:44:12.044Z,2.35
2023-04-09T00:45:14.636Z,2.97
2023-04-09T00:46:18.110Z,2.50
2023-04-09T00:47:21.010Z,2.50
2023-04-09T00:48:23.758Z,2.63
2023-04-09T00:49:26.633Z,2.53
2023-04-09T00:50:29.022Z,3.03
2023-04-09T00:51:31.747Z,3.63
2023-04-09T00:52:34.422Z,15.07
2023-04-09T00:53:37.009Z,35.88
2023-04-09T00:54:39.679Z,13.23
2023-04-09T00:55:42.155Z,8.27
2023-04-09T00:56:45.482Z,7.15
2023-04-09T00:57:48.058Z,21.10
2023-04-09T00:58:51.158Z,26.45
2023-04-09T00:59:53.980Z,18.08
2023-04-09T01:00:56.730Z,16.20
2023-04-09T01:01:59.396Z,16.85
2023-04-09T01:03:04.769Z,10.77
2023-04-09T01:04:07.388Z,9.35
2023-04-09T01:05:11.339Z,7.25
2023-04-09T01:06:38.644Z,5.47
2023-04-09T01:08:03.864Z,5.05
2023-04-09T01:09:28.556Z,5.05
2023-04-09T01:10:42.724Z,4.57
2023-04-09T01:12:08.763Z,4.40
2023-04-09T01:13:20.369Z,5.07
2023-04-09T01:14:59.942Z,4.18
2023-04-09T01:16:03.825Z,3.60
2023-04-09T01:17:35.260Z,4.53
2023-04-09T01:18:52.933Z,4.35
2023-04-09T01:20:13.118Z,3.95
2023-04-09T01:21:20.514Z,4.30
2023-04-09T01:22:53.641Z,3.75
2023-04-09T01:24:13.393Z,4.05
2023-04-09T01:25:34.777Z,3.50
2023-04-09T01:26:55.498Z,6.60
2023-04-09T01:28:24.184Z,4.95
2023-04-09T01:29:32.096Z,27.52
2023-04-09T01:30:35.790Z,12.60
2023-04-09T01:31:40.083Z,23.70
2023-04-09T01:32:45.263Z,35.67
2023-04-09T01:33:48.268Z,34.92
2023-04-09T01:34:51.535Z,34.58
2023-04-09T01:35:55.189Z,20.33
2023-04-09T01:37:02.690Z,14.27
2023-04-09T01:38:05.458Z,11.07
2023-04-09T01:39:08.674Z,9.32
2023-04-09T01:40:11.565Z,8.25
2023-04-09T01:41:18.027Z,7.75
2023-04-09T01:42:21.547Z,7.03
2023-04-09T01:43:25.836Z,7.60
2023-04-09T01:44:29.076Z,6.97
2023-04-09T01:45:32.663Z,6.65
2023-04-09T01:46:36.777Z,6.43
2023-04-09T01:47:40.053Z,6.75
2023-04-09T01:48:43.849Z,5.63
2023-04-09T01:49:46.580Z,6.85
2023-04-09T01:50:50.523Z,6.45
2023-04-09T01:51:53.213Z,4.95
2023-04-09T01:52:56.239Z,10.60
2023-04-09T01:53:59.424Z,8.32
2023-04-09T01:55:02.353Z,8.13
2023-04-09T01:56:06.168Z,8.63
2023-04-09T01:57:08.651Z,12.00
2023-04-09T01:58:13.924Z,19.88
2023-04-09T01:59:16.576Z,18.75
2023-04-09T02:00:19.366Z,23.40
2023-04-09T02:01:32.599Z,32.90
2023-04-09T02:02:49.043Z,15.65
2023-04-09T02:03:56.617Z,12.75
2023-04-09T02:05:03.375Z,9.43
2023-04-09T02:06:17.023Z,8.35
2023-04-09T02:07:31.588Z,7.95
2023-04-09T02:08:35.585Z,7.72
2023-04-09T02:09:42.355Z,7.20
2023-04-09T02:10:53.609Z,6.78
2023-04-09T02:11:58.786Z,6.75
2023-04-09T02:13:03.262Z,6.40
2023-04-09T02:14:11.174Z,6.07
2023-04-09T02:15:14.508Z,6.03
2023-04-09T02:16:17.918Z,5.60
2023-04-09T02:17:20.940Z,5.88
2023-04-09T02:18:25.772Z,5.80
2023-04-09T02:19:41.497Z,6.47
2023-04-09T02:20:43.964Z,6.50
2023-04-09T02:21:47.226Z,5.85
2023-04-09T02:22:49.773Z,6.05
2023-04-09T02:23:52.571Z,5.55
2023-04-09T02:24:55.128Z,5.38
2023-04-09T02:25:57.739Z,6.28
2023-04-09T02:27:00.363Z,6.72
2023-04-09T02:28:05.541Z,8.85
2023-04-09T02:29:08.107Z,8.07
2023-04-09T02:30:11.156Z,13.02
2023-04-09T02:31:14.326Z,12.77
2023-04-09T02:46:41.315Z,5.38
2023-04-09T02:50:22.852Z,4.72
2023-04-09T02:51:28.352Z,5.20
2023-04-09T02:52:31.102Z,5.07
2023-04-09T02:53:33.910Z,5.25
2023-04-09T02:54:36.555Z,4.70
2023-04-09T02:55:39.071Z,4.75
2023-04-09T02:56:43.755Z,4.32
2023-04-09T02:57:48.492Z,4.65
2023-04-09T02:58:54.377Z,25.10
2023-04-09T02:59:57.607Z,28.17
2023-04-09T03:01:00.325Z,36.42
2023-04-09T03:02:02.891Z,52.92
2023-04-09T03:03:05.684Z,68.10
2023-04-09T03:04:08.411Z,40.65
2023-04-09T03:05:11.098Z,54.97
2023-04-09T03:06:13.712Z,53.80
2023-04-09T03:07:16.281Z,44.35
2023-04-09T03:08:18.790Z,38.88
2023-04-09T03:09:21.234Z,34.40
2023-04-09T03:10:24.627Z,32.33
2023-04-09T03:11:27.173Z,29.63
2023-04-09T03:12:29.640Z,27.60
2023-04-09T03:13:32.125Z,25.85
2023-04-09T03:14:35.317Z,24.83
2023-04-09T03:15:38.071Z,22.33
2023-04-09T03:16:40.505Z,20.15
2023-04-09T03:17:43.050Z,20.23
2023-04-09T03:18:45.676Z,18.10
2023-04-09T03:19:48.620Z,17.50
2023-04-09T03:20:51.930Z,16.13
2023-04-09T03:21:54.492Z,16.20
2023-04-09T03:23:00.595Z,15.18
2023-04-09T03:24:14.284Z,15.02
2023-04-09T03:25:19.433Z,14.73
2023-04-09T03:26:22.284Z,13.35
2023-04-09T03:27:25.952Z,15.05
2023-04-09T03:28:32.053Z,15.35
2023-04-09T03:29:34.665Z,14.15
2023-04-09T03:30:37.313Z,15.30
2023-04-09T03:31:42.028Z,15.18
2023-04-09T03:32:44.676Z,13.25
2023-04-09T03:33:49.020Z,13.77
2023-04-09T03:34:53.679Z,13.10
2023-04-09T03:35:58.133Z,13.80
2023-04-09T03:37:17.534Z,13.18
2023-04-09T03:38:20.555Z,13.52
2023-04-09T03:39:22.977Z,12.93
2023-04-09T03:40:25.529Z,12.93
2023-04-09T03:41:27.939Z,13.15
2023-04-09T03:42:32.016Z,13.25
2023-04-09T03:43:34.829Z,13.57
2023-04-09T03:44:37.226Z,11.20
2023-04-09T03:45:45.629Z,12.77
2023-04-09T03:46:57.095Z,13.55
2023-04-09T03:48:00.855Z,11.27
2023-04-09T03:49:03.361Z,12.80
2023-04-09T03:50:16.687Z,12.13
2023-04-09T03:51:28.506Z,11.63
2023-04-09T03:52:34.004Z,11.88
2023-04-09T03:53:41.952Z,11.85
2023-04-09T03:54:45.300Z,11.38
2023-04-09T03:55:52.690Z,11.02
2023-04-09T03:56:59.771Z,11.55
2023-04-09T03:58:02.202Z,11.85
2023-04-09T03:59:07.828Z,12.05
2023-04-09T04:00:17.199Z,11.65
2023-04-09T04:01:38.919Z,13.07
2023-04-09T04:02:41.871Z,12.32
2023-04-09T04:03:45.502Z,12.05
2023-04-09T04:05:04.009Z,10.82
2023-04-09T04:06:12.317Z,10.40
2023-04-09T04:07:37.516Z,11.55
2023-04-09T04:08:44.984Z,11.13
2023-04-09T04:09:47.869Z,10.98
2023-04-09T04:10:52.799Z,11.35
2023-04-09T04:11:58.999Z,11.32
2023-04-09T04:13:15.316Z,10.90
2023-04-09T04:14:31.644Z,10.27
2023-04-09T04:16:47.962Z,9.88
2023-04-09T04:17:54.802Z,11.25
2023-04-09T04:19:09.680Z,9.90
2023-04-09T04:20:18.222Z,7.78
2023-04-09T04:21:33.287Z,60.30
2023-04-09T04:22:37.697Z,39.20
2023-04-09T04:23:40.984Z,39.30
2023-04-09T04:24:56.228Z,36.63
2023-04-09T04:25:59.357Z,28.50
2023-04-09T04:27:06.842Z,23.52
2023-04-09T04:28:11.142Z,19.63
2023-04-09T04:29:16.930Z,17.60
2023-04-09T04:30:42.699Z,17.23
2023-04-09T04:31:45.750Z,17.20
2023-04-09T04:32:50.786Z,17.33
2023-04-09T04:33:53.169Z,17.17
2023-04-09T04:34:55.687Z,16.38
2023-04-09T04:36:09.227Z,16.75
2023-04-09T04:37:15.968Z,15.60
2023-04-09T04:38:18.834Z,15.73
2023-04-09T04:39:21.219Z,16.55
2023-04-09T04:40:43.920Z,16.02
2023-04-09T04:41:46.425Z,15.75
2023-04-09T04:42:53.953Z,16.27
2023-04-09T04:43:57.300Z,15.55
2023-04-09T04:45:00.907Z,16.23
2023-04-09T04:46:20.726Z,15.30
2023-04-09T04:47:23.860Z,15.38
2023-04-09T04:48:28.088Z,15.85
2023-04-09T04:49:31.715Z,14.80
2023-04-09T04:50:35.673Z,15.50
2023-04-09T04:51:42.620Z,14.40
2023-04-09T04:52:48.308Z,14.73
2023-04-09T04:53:50.774Z,15.05
2023-04-09T04:54:54.050Z,13.60
2023-04-09T04:55:59.024Z,14.43
2023-04-09T04:57:03.426Z,15.30
2023-04-09T04:58:12.935Z,14.70
2023-04-09T04:59:22.986Z,13.77
2023-04-09T05:00:33.767Z,14.57
2023-04-09T05:01:38.584Z,14.48
2023-04-09T05:02:44.703Z,13.88
2023-04-09T05:03:47.638Z,14.50
2023-04-09T05:05:04.177Z,14.18
2023-04-09T05:06:15.220Z,13.48
2023-04-09T05:07:20.416Z,14.30
2023-04-09T05:08:29.180Z,14.07
2023-04-09T05:09:32.958Z,12.90
2023-04-09T05:10:42.883Z,14.07
2023-04-09T05:11:46.377Z,12.98
2023-04-09T05:12:54.018Z,12.95
2023-04-09T05:14:04.930Z,13.40
2023-04-09T05:15:08.295Z,13.90
2023-04-09T05:16:19.670Z,12.55
2023-04-09T05:17:28.972Z,12.82
2023-04-09T05:18:31.486Z,13.93
2023-04-09T05:19:33.865Z,12.88
2023-04-09T05:20:38.690Z,13.50
2023-04-09T05:21:47.166Z,13.15
2023-04-09T05:22:55.439Z,13.50
2023-04-09T05:24:04.737Z,13.30
2023-04-09T05:25:09.280Z,13.40
2023-04-09T05:26:14.340Z,12.77
2023-04-09T05:27:27.640Z,11.98
2023-04-09T05:28:35.023Z,13.75
2023-04-09T05:29:46.808Z,12.30
2023-04-09T05:30:50.391Z,11.48
2023-04-09T05:31:53.989Z,12.88
2023-04-09T05:33:02.601Z,12.82
2023-04-09T05:34:06.602Z,12.65
2023-04-09T05:35:13.705Z,13.20
2023-04-09T05:36:19.795Z,12.30
2023-04-09T05:37:22.213Z,12.27
2023-04-09T05:38:27.296Z,12.45
2023-04-09T05:39:33.477Z,12.10
2023-04-09T05:40:37.289Z,11.80
2023-04-09T05:41:46.593Z,11.95
2023-04-09T05:43:07.986Z,12.60
2023-04-09T05:44:15.328Z,12.30
2023-04-09T05:45:18.605Z,12.23
2023-04-09T05:46:27.451Z,12.10
2023-04-09T05:47:30.496Z,12.48
2023-04-09T05:48:38.295Z,12.02
2023-04-09T05:49:41.592Z,11.20
2023-04-09T05:50:55.570Z,11.75
2023-04-09T05:52:01.362Z,10.98
2023-04-09T05:53:07.481Z,12.13
2023-04-09T05:54:14.918Z,11.13
2023-04-09T05:55:17.724Z,11.40
2023-04-09T05:56:27.098Z,11.27
2023-04-09T05:57:32.694Z,12.18
2023-04-09T05:58:38.485Z,11.30
2023-04-09T05:59:41.146Z,11.45
2023-04-09T06:00:43.678Z,12.05
2023-04-09T06:01:46.445Z,11.75
2023-04-09T06:02:49.073Z,11.70
2023-04-09T06:03:52.860Z,11.90
2023-04-09T06:04:57.377Z,11.55
2023-04-09T06:06:00.661Z,11.85
2023-04-09T06:07:03.550Z,11.15
2023-04-09T06:08:06.195Z,10.98
2023-04-09T06:09:08.817Z,11.00
2023-04-09T06:10:13.317Z,11.35
2023-04-09T06:11:15.959Z,10.95
2023-04-09T06:12:18.629Z,11.73
2023-04-09T06:13:21.477Z,10.73
2023-04-09T06:14:24.129Z,10.50
2023-04-09T06:15:27.601Z,11.13
2023-04-09T06:16:30.555Z,11.70
2023-04-09T06:17:33.222Z,11.45
2023-04-09T06:18:36.845Z,11.05
2023-04-09T06:19:39.796Z,11.40
2023-04-09T06:20:45.342Z,11.15
2023-04-09T06:21:47.873Z,10.63
2023-04-09T06:22:50.335Z,11.05
2023-04-09T06:23:53.890Z,10.88
2023-04-09T06:24:57.064Z,10.45
2023-04-09T06:26:00.908Z,10.93
2023-04-09T06:27:03.304Z,10.68
2023-04-09T06:28:05.737Z,11.15
2023-04-09T06:29:08.063Z,11.07
2023-04-09T06:30:11.745Z,10.50
2023-04-09T06:31:15.551Z,9.43
2023-04-09T06:32:18.289Z,11.82
2023-04-09T06:33:21.051Z,10.30
2023-04-09T06:34:23.480Z,10.90
2023-04-09T06:35:26.277Z,10.73
2023-04-09T06:36:28.677Z,10.43
2023-04-09T06:37:31.099Z,10.80
2023-04-09T06:38:33.399Z,10.05
2023-04-09T06:39:37.409Z,11.00
2023-04-09T06:40:41.466Z,10.63
2023-04-09T06:41:44.275Z,10.18
2023-04-09T06:42:58.934Z,11.10
2023-04-09T06:44:12.055Z,9.60
2023-04-09T06:45:14.420Z,10.02
2023-04-09T06:46:20.073Z,10.13
2023-04-09T06:47:22.745Z,9.93
2023-04-09T06:48:25.298Z,10.27
2023-04-09T06:49:27.686Z,10.88
2023-04-09T06:50:30.339Z,11.00
2023-04-09T06:51:32.838Z,9.77
2023-04-09T06:52:35.390Z,8.27
2023-04-09T06:53:40.623Z,10.70
2023-04-09T06:54:44.064Z,8.93
2023-04-09T06:55:46.490Z,8.13
2023-04-09T06:56:48.855Z,7.50
2023-04-09T06:57:51.632Z,16.20
2023-04-09T06:58:54.305Z,22.55
2023-04-09T06:59:56.792Z,21.40
2023-04-09T07:01:00.128Z,19.30
2023-04-09T07:02:03.139Z,15.52
2023-04-09T07:03:08.151Z,12.73
2023-04-09T07:04:14.130Z,11.50
2023-04-09T07:05:16.708Z,10.38
2023-04-09T07:06:19.140Z,10.23
2023-04-09T07:07:23.750Z,10.10
2023-04-09T07:08:28.566Z,10.52
2023-04-09T07:09:31.561Z,10.05
2023-04-09T07:10:34.055Z,10.18
2023-04-09T07:11:36.905Z,10.23
2023-04-09T07:12:39.313Z,9.98
2023-04-09T07:13:41.777Z,10.35
2023-04-09T07:14:44.229Z,10.52
2023-04-09T07:15:46.651Z,9.98
2023-04-09T07:16:49.096Z,10.68
2023-04-09T07:17:51.714Z,9.80
2023-04-09T07:18:54.265Z,9.45
2023-04-09T07:19:56.787Z,11.13
2023-04-09T07:20:59.457Z,10.60
2023-04-09T07:22:01.962Z,9.95
2023-04-09T07:23:04.514Z,10.13
2023-04-09T07:24:07.403Z,9.55
2023-04-09T07:25:10.489Z,10.05
2023-04-09T07:26:12.912Z,9.57
2023-04-09T07:27:16.568Z,8.70
2023-04-09T07:28:21.116Z,8.98
2023-04-09T07:29:24.136Z,11.40
2023-04-09T07:33:39.364Z,11.77
2023-04-09T07:34:44.877Z,12.15
2023-04-09T07:35:47.472Z,11.77
2023-04-09T07:36:50.222Z,9.25
2023-04-09T07:37:52.599Z,9.38
2023-04-09T07:38:56.581Z,9.60
2023-04-09T07:39:59.346Z,8.65
2023-04-09T07:41:01.990Z,9.63
2023-04-09T07:42:06.099Z,9.57
2023-04-09T07:43:08.573Z,9.52
2023-04-09T07:44:11.283Z,8.90
2023-04-09T07:45:13.826Z,9.60
2023-04-09T07:46:22.949Z,9.35
2023-04-09T07:47:26.177Z,9.63
2023-04-09T07:48:28.949Z,9.18
2023-04-09T07:49:31.518Z,10.25
2023-04-09T07:52:06.803Z,9.70
2023-04-09T07:53:09.369Z,9.40
2023-04-09T07:54:11.834Z,9.55
2023-04-09T07:55:16.268Z,9.60
2023-04-09T07:56:19.617Z,9.18
2023-04-09T07:57:22.084Z,8.88
2023-04-09T07:58:25.026Z,9.68
2023-04-09T07:59:28.058Z,9.90
2023-04-09T08:00:30.684Z,9.70
2023-04-09T08:01:33.124Z,10.07
2023-04-09T08:02:36.043Z,9.88
2023-04-09T08:03:38.637Z,9.32
2023-04-09T08:04:41.294Z,9.23
2023-04-09T08:05:45.867Z,9.38
2023-04-09T08:06:50.799Z,9.35
2023-04-09T08:07:53.388Z,9.20
2023-04-09T08:08:56.787Z,9.73
2023-04-09T08:09:59.390Z,9.50
2023-04-09T08:12:39.769Z,9.70
2023-04-09T08:13:42.064Z,10.43
2023-04-09T08:14:44.359Z,10.02
2023-04-09T08:15:46.766Z,9.20
2023-04-09T08:16:50.534Z,9.25
2023-04-09T08:17:53.474Z,10.15
2023-04-09T08:18:56.624Z,8.88
2023-04-09T08:20:00.735Z,8.63
2023-04-09T08:28:14.721Z,8.63
2023-04-09T08:29:29.060Z,8.77
2023-04-09T08:30:50.298Z,8.63
2023-04-09T08:31:52.819Z,9.35
2023-04-09T08:32:55.586Z,10.05
2023-04-09T08:33:58.204Z,8.15
2023-04-09T08:35:00.883Z,6.38
2023-04-09T08:36:07.854Z,6.13
2023-04-09T08:37:10.401Z,5.75
2023-04-09T08:38:15.848Z,5.30
2023-04-09T08:39:21.461Z,5.80
2023-04-09T08:43:15.601Z,5.88
2023-04-09T08:44:18.622Z,7.38
2023-04-09T08:45:21.021Z,6.88
2023-04-09T08:46:24.377Z,8.38
2023-04-09T08:47:27.745Z,8.20
2023-04-09T08:48:30.231Z,8.65
2023-04-09T08:49:33.503Z,7.93
2023-04-09T08:50:36.775Z,7.40
2023-04-09T08:51:40.319Z,8.30
2023-04-09T08:52:45.989Z,8.23
2023-04-09T08:53:53.560Z,8.15
2023-04-09T08:54:56.267Z,7.82
2023-04-09T08:56:00.442Z,7.97
2023-04-09T08:57:07.516Z,7.50
2023-04-09T08:58:10.854Z,8.15
2023-04-09T08:59:21.005Z,8.80
2023-04-09T09:00:24.338Z,7.97
2023-04-09T09:01:29.041Z,7.78
2023-04-09T09:02:32.233Z,7.57
2023-04-09T09:03:59.368Z,7.55
2023-04-09T09:05:01.964Z,7.38
2023-04-09T09:06:04.454Z,8.20
2023-04-09T09:07:09.883Z,8.85
2023-04-09T09:08:33.290Z,7.63
2023-04-09T09:09:58.730Z,8.48
2023-04-09T09:14:19.452Z,7.93
2023-04-09T09:15:27.872Z,7.72
2023-04-09T09:16:31.274Z,8.48
2023-04-09T09:17:52.802Z,8.10
2023-04-09T09:18:58.634Z,7.55
2023-04-09T09:20:19.943Z,7.00
2023-04-09T09:21:22.928Z,7.57
2023-04-09T09:22:25.904Z,7.20
2023-04-09T09:23:37.891Z,7.47
2023-04-09T09:24:50.404Z,7.07
2023-04-09T09:25:53.036Z,7.57
2023-04-09T09:26:55.815Z,7.68
2023-04-09T09:28:11.515Z,7.38
2023-04-09T09:29:13.935Z,7.78
2023-04-09T09:30:25.010Z,7.07
2023-04-09T09:31:27.571Z,6.97
2023-04-09T09:32:30.730Z,8.13
2023-04-09T09:33:33.970Z,7.68
2023-04-09T09:34:36.517Z,6.93
2023-04-09T09:35:49.434Z,7.70
2023-04-09T09:36:51.897Z,7.43
2023-04-09T09:38:04.895Z,6.95
2023-04-09T09:39:12.026Z,6.93
2023-04-09T09:46:31.771Z,6.05
2023-04-09T09:47:35.464Z,6.70
2023-04-09T09:48:39.367Z,6.85
2023-04-09T09:49:41.927Z,6.75
2023-04-09T09:50:46.612Z,7.88
2023-04-09T09:51:49.066Z,7.32
2023-04-09T09:52:57.108Z,25.10
2023-04-09T09:53:59.929Z,14.32
2023-04-09T09:55:05.344Z,11.85
2023-04-09T09:56:15.731Z,8.40
2023-04-09T09:57:20.035Z,7.57
2023-04-09T09:58:32.050Z,6.88
2023-04-09T09:59:40.411Z,6.80
2023-04-09T10:00:44.781Z,7.97
2023-04-09T10:01:51.817Z,15.43
2023-04-09T10:03:03.145Z,10.82
2023-04-09T10:05:09.183Z,9.32
2023-04-09T10:06:13.061Z,8.93
2023-04-09T10:07:16.160Z,8.90
2023-04-09T10:08:19.423Z,7.90
2023-04-09T10:09:23.285Z,8.85
2023-04-09T10:10:27.224Z,8.27
2023-04-09T10:11:31.804Z,8.68
2023-04-09T10:12:34.660Z,8.95
2023-04-09T10:13:43.536Z,8.38
2023-04-09T10:14:46.414Z,8.32
2023-04-09T10:15:49.437Z,9.23
2023-04-09T10:16:52.275Z,8.60
2023-04-09T10:17:56.300Z,8.77
2023-04-09T10:19:02.110Z,8.57
2023-04-09T10:20:41.787Z,7.63
2023-04-09T10:22:05.634Z,8.35
2023-04-09T10:23:17.336Z,8.77
2023-04-09T10:24:20.195Z,8.70
2023-04-09T10:25:22.614Z,8.23
2023-04-09T10:26:30.860Z,8.68
2023-04-09T10:27:33.520Z,7.40
2023-04-09T10:28:40.840Z,7.85
2023-04-09T10:29:45.692Z,8.13
2023-04-09T10:30:48.202Z,7.43
2023-04-09T10:32:06.770Z,8.60
2023-04-09T10:33:14.384Z,8.32
2023-04-09T10:34:19.247Z,7.60
2023-04-09T10:35:28.165Z,8.50
2023-04-09T10:36:31.493Z,7.38
2023-04-09T10:37:36.059Z,7.32
2023-04-09T10:38:41.475Z,7.68
2023-04-09T10:39:48.042Z,8.05
2023-04-09T10:40:53.461Z,7.47
2023-04-09T10:42:00.100Z,7.30
2023-04-09T10:43:03.913Z,7.00
2023-04-09T10:44:07.373Z,7.75
2023-04-09T10:45:15.029Z,7.25
2023-04-09T10:46:34.486Z,6.75
2023-04-09T10:47:39.702Z,7.10
2023-04-09T10:48:43.741Z,6.97
2023-04-09T10:49:46.157Z,7.15
2023-04-09T10:50:54.383Z,7.25
2023-04-09T10:52:02.918Z,7.10
2023-04-09T10:53:05.255Z,6.70
2023-04-09T10:54:34.721Z,7.18
2023-04-09T10:55:38.375Z,6.70
2023-04-09T10:56:40.885Z,7.57
2023-04-09T10:57:43.399Z,7.55
2023-04-09T10:58:45.709Z,7.07
2023-04-09T10:59:52.138Z,6.80
2023-04-09T11:00:54.577Z,6.40
2023-04-09T11:01:56.982Z,7.30
2023-04-09T11:03:13.465Z,7.07
2023-04-09T11:04:20.422Z,7.43
2023-04-09T11:05:34.121Z,6.72
2023-04-09T11:06:40.247Z,6.88
2023-04-09T11:07:51.855Z,6.05
2023-04-09T11:08:56.925Z,6.30
2023-04-09T11:09:59.478Z,6.28
2023-04-09T11:11:02.657Z,6.55
2023-04-09T11:12:05.285Z,6.50
2023-04-09T11:13:17.722Z,7.53
2023-04-09T11:14:20.590Z,6.38
2023-04-09T11:15:22.980Z,7.45
2023-04-09T11:16:27.902Z,5.60
2023-04-09T11:17:36.687Z,6.68
2023-04-09T11:18:39.730Z,7.03
2023-04-09T11:19:42.072Z,6.70
2023-04-09T11:20:44.815Z,6.40
2023-04-09T11:21:48.347Z,6.55
2023-04-09T11:22:53.201Z,6.10
2023-04-09T11:23:55.667Z,6.32
2023-04-09T11:24:57.877Z,6.70
2023-04-09T11:26:01.779Z,6.00
2023-04-09T11:27:04.432Z,6.28
2023-04-09T11:28:08.081Z,6.45
2023-04-09T11:29:10.653Z,6.65
2023-04-09T11:30:13.174Z,6.45
2023-04-09T11:31:16.855Z,6.40
2023-04-09T11:32:19.353Z,6.07
2023-04-09T11:33:22.404Z,6.28
2023-04-09T11:34:28.450Z,6.20
2023-04-09T11:35:33.860Z,6.43
2023-04-09T11:36:36.491Z,6.13
2023-04-09T11:37:41.209Z,6.05
2023-04-09T11:38:43.651Z,6.10
2023-04-09T11:39:51.533Z,6.15
2023-04-09T11:40:57.995Z,5.38
2023-04-09T11:42:00.799Z,6.35
2023-04-09T11:43:03.450Z,5.93
2023-04-09T11:44:06.114Z,5.60
2023-04-09T11:45:10.517Z,5.40
2023-04-09T11:46:12.973Z,5.97
2023-04-09T11:47:18.635Z,6.30
2023-04-09T11:48:23.306Z,5.50
2023-04-09T11:49:25.964Z,5.85
2023-04-09T11:50:28.578Z,6.10
2023-04-09T11:51:32.629Z,5.93
2023-04-09T11:52:38.444Z,5.85
2023-04-09T11:53:41.053Z,5.88
2023-04-09T11:54:49.311Z,5.95
2023-04-09T11:55:54.123Z,5.90
2023-04-09T11:56:58.651Z,5.20
2023-04-09T11:58:01.679Z,4.55
2023-04-09T11:59:04.444Z,3.88
2023-04-09T12:00:14.325Z,4.32
2023-04-09T12:01:17.261Z,3.72
2023-04-09T12:02:20.148Z,3.83
2023-04-09T12:03:31.346Z,3.83
2023-04-09T12:04:34.738Z,4.03
2023-04-09T12:05:39.099Z,4.63
2023-04-09T12:06:43.399Z,4.60
2023-04-09T12:07:55.645Z,4.30
2023-04-09T12:08:59.669Z,3.05
2023-04-09T12:10:10.421Z,3.40
2023-04-09T12:11:15.477Z,2.63
2023-04-09T12:12:24.029Z,2.72
2023-04-09T12:13:34.004Z,2.88
2023-04-09T12:14:36.659Z,3.20
2023-04-09T12:15:41.798Z,2.90
2023-04-09T12:16:45.646Z,3.10
2023-04-09T12:17:50.441Z,2.17
2023-04-09T12:18:55.907Z,2.60
2023-04-09T12:19:58.410Z,2.03
2023-04-09T12:21:02.590Z,2.47
2023-04-09T12:22:05.706Z,3.08
2023-04-09T12:23:10.117Z,2.90
2023-04-09T12:24:14.930Z,2.92
2023-04-09T12:25:17.576Z,2.40
2023-04-09T12:26:19.971Z,2.60
2023-04-09T12:27:22.529Z,2.20
2023-04-09T12:28:25.909Z,2.17
2023-04-09T12:29:29.875Z,3.50
2023-04-09T12:30:33.666Z,2.38
2023-04-09T12:31:36.781Z,2.60
2023-04-09T12:32:39.520Z,2.10
2023-04-09T12:33:42.773Z,2.70
2023-04-09T12:34:47.433Z,2.55
2023-04-09T12:35:50.061Z,2.90
2023-04-09T12:36:53.660Z,2.20
2023-04-09T12:37:56.227Z,2.20
2023-04-09T12:38:58.728Z,2.50
2023-04-09T12:40:04.627Z,2.60
2023-04-09T12:41:07.214Z,2.35
2023-04-09T12:42:10.022Z,1.90
2023-04-09T12:43:12.632Z,2.20
2023-04-09T12:44:15.226Z,2.50
2023-04-09T12:45:19.486Z,2.45
2023-04-09T12:46:22.152Z,2.50
2023-04-09T12:47:25.719Z,2.55
2023-04-09T12:48:28.535Z,2.22
2023-04-09T12:50:56.854Z,2.53
2023-04-09T12:52:00.495Z,2.50
2023-04-09T12:53:03.401Z,3.17
2023-04-09T12:54:06.026Z,2.88
2023-04-09T12:55:09.744Z,3.22
2023-04-09T12:56:12.566Z,3.08
2023-04-09T12:57:15.544Z,3.30
2023-04-09T12:58:18.103Z,3.13
2023-04-09T12:59:20.784Z,3.47
2023-04-09T13:00:23.272Z,3.22
2023-04-09T13:01:26.040Z,3.40
2023-04-09T13:02:28.761Z,3.10
2023-04-09T13:03:31.524Z,3.58
2023-04-09T13:04:34.359Z,3.70
2023-04-09T13:05:36.977Z,4.00
2023-04-09T13:06:39.447Z,3.55
2023-04-09T13:07:43.495Z,3.97
2023-04-09T13:08:46.158Z,3.72
2023-04-09T13:09:52.344Z,4.10
2023-04-09T13:10:54.841Z,3.20
2023-04-09T13:11:57.323Z,3.50
2023-04-09T13:12:59.808Z,3.60
2023-04-09T13:14:02.183Z,3.20
2023-04-09T13:15:05.076Z,3.03
2023-04-09T13:16:08.078Z,3.42
2023-04-09T13:17:10.978Z,3.33
2023-04-09T13:18:14.009Z,3.53
2023-04-09T13:19:17.114Z,3.45
2023-04-09T13:22:03.242Z,3.13
2023-04-09T13:23:08.960Z,3.03
2023-04-09T13:24:14.152Z,2.83
2023-04-09T13:25:16.918Z,3.65
2023-04-09T13:26:19.701Z,3.28
2023-04-09T13:27:22.218Z,3.00
2023-04-09T13:28:24.742Z,3.50
2023-04-09T13:29:29.223Z,3.60
2023-04-09T13:30:31.989Z,3.38
2023-04-09T13:31:36.394Z,2.88
2023-04-09T13:32:38.972Z,3.15
2023-04-09T13:33:41.438Z,3.40
2023-04-09T13:34:43.934Z,3.50
2023-04-09T13:35:46.777Z,2.97
2023-04-09T13:36:49.430Z,3.50
2023-04-09T13:37:52.062Z,3.00
2023-04-09T13:38:54.929Z,3.35
2023-04-09T13:39:57.650Z,3.47
2023-04-09T13:41:01.006Z,3.13
2023-04-09T13:42:12.586Z,3.28
2023-04-09T13:43:16.218Z,3.45
2023-04-09T13:44:18.621Z,3.30
2023-04-09T13:45:23.974Z,3.47
2023-04-09T13:46:28.067Z,3.33
2023-04-09T13:47:30.729Z,3.28
2023-04-09T13:48:34.808Z,3.58
2023-04-09T13:49:37.287Z,19.00
2023-04-09T13:50:39.754Z,6.00
2023-04-09T13:51:42.130Z,3.58
2023-04-09T13:52:44.505Z,4.10
2023-04-09T13:53:48.289Z,3.03
2023-04-09T13:54:53.422Z,3.22
2023-04-09T13:55:56.379Z,3.92
2023-04-09T13:56:59.911Z,2.78
2023-04-09T13:58:04.804Z,2.65
2023-04-09T13:59:07.666Z,2.08
2023-04-09T14:00:10.497Z,2.53
2023-04-09T14:01:13.541Z,2.17
2023-04-09T14:02:17.971Z,1.83
2023-04-09T14:03:21.268Z,2.40
2023-04-09T14:04:24.052Z,1.85
2023-04-09T14:05:27.559Z,1.98
2023-04-09T14:06:30.105Z,1.63
2023-04-09T14:07:32.672Z,1.70
2023-04-09T14:08:35.875Z,1.98
2023-04-09T14:09:38.203Z,2.53
2023-04-09T14:10:40.804Z,1.80
2023-04-09T14:11:43.234Z,1.65
2023-04-09T14:12:46.069Z,1.50
2023-04-09T14:13:48.689Z,1.83
2023-04-09T14:14:51.686Z,2.03
2023-04-09T14:15:54.097Z,1.70
2023-04-09T14:16:56.794Z,1.30
2023-04-09T14:17:59.788Z,1.65
2023-04-09T14:19:02.386Z,1.60
2023-04-09T14:20:05.131Z,1.60
2023-04-09T14:21:10.254Z,1.33
2023-04-09T14:22:13.059Z,1.30
2023-04-09T14:23:15.777Z,1.58
2023-04-09T14:24:20.022Z,1.25
2023-04-09T14:25:22.520Z,1.10
2023-04-09T14:26:24.950Z,1.75
2023-04-09T14:27:27.371Z,1.70
2023-04-09T14:28:30.256Z,1.10
2023-04-09T14:29:33.020Z,1.58
2023-04-09T14:30:35.547Z,1.50
2023-04-09T14:31:38.014Z,2.00
2023-04-09T14:32:40.506Z,1.40
2023-04-09T14:33:42.986Z,1.60
2023-04-09T14:34:45.628Z,1.42
2023-04-09T14:35:48.184Z,1.60
2023-04-09T14:36:50.564Z,1.60
2023-04-09T14:37:52.976Z,1.80
2023-04-09T14:38:57.859Z,1.40
2023-04-09T14:40:01.019Z,1.83
2023-04-09T14:41:03.538Z,2.05
2023-04-09T14:42:08.547Z,1.70
2023-04-09T14:43:11.134Z,1.52
2023-04-09T14:44:13.538Z,1.40
2023-04-09T14:45:16.692Z,1.50
2023-04-09T14:46:22.351Z,1.52
2023-04-09T14:47:25.044Z,1.40
2023-04-09T14:48:27.465Z,1.90
2023-04-09T14:49:29.941Z,1.27
2023-04-09T14:50:33.907Z,1.67
2023-04-09T14:51:37.352Z,1.20
2023-04-09T14:52:40.285Z,2.08
2023-04-09T14:53:43.201Z,1.90
2023-04-09T14:54:47.165Z,1.80
2023-04-09T14:55:49.509Z,2.20
2023-04-09T14:56:52.035Z,2.10
2023-04-09T14:57:54.468Z,1.83
2023-04-09T14:58:56.897Z,1.67
2023-04-09T14:59:59.645Z,1.30
2023-04-09T15:01:04.195Z,1.52
2023-04-09T15:02:06.717Z,1.38
2023-04-09T15:03:09.235Z,1.10
2023-04-09T15:04:11.870Z,1.42
2023-04-09T15:05:14.381Z,1.30
2023-04-09T15:06:17.109Z,1.48